Time;durP1;ratioP1;P1;durP2;ratioP2;P2;SDS_P1;SDS_P2;PMS_P1;PMS_P2;Temp;Humidity;BMP_temperature;BMP_pressure;BME280_temperature;BME280_humidity;BME280_pressure;Samples;Min_cycle;Max_cycle;Signal;HPM_P1;HPM_P2
2021/11/12 00:02:40;;;;;;;24.27;18.53;;;;;;;;;;5060568;28;20194;-80
2021/11/12 00:13:23;;;;;;;23.33;17.93;;;;;;;;;;5067661;28;20255;-81
2021/11/12 00:15:52;;;;;;;23.57;18.07;;;;;;;;;;5036792;28;20632;-80
2021/11/12 00:18:19;;;;;;;25.67;17.67;;;;;;;;;;5042383;28;20188;-81
2021/11/12 00:20:45;;;;;;;25.33;18.73;;;;;;;;;;5041526;28;20173;-80
2021/11/12 00:23:12;;;;;;;25.90;19.10;;;;;;;;;;5036921;28;20176;-81
2021/11/12 00:25:39;;;;;;;27.60;18.30;;;;;;;;;;5043191;28;20177;-81
2021/11/12 00:28:05;;;;;;;26.50;17.83;;;;;;;;;;5035970;28;20207;-80
2021/11/12 00:30:48;;;;;;;25.77;18.47;;;;;;;;;;5035655;28;20191;-81
2021/11/12 00:36:30;;;;;;;25.47;17.73;;;;;;;;;;5067262;28;20180;-80
2021/11/12 00:38:44;;;;;;;23.40;17.70;;;;;;;;;;5051870;28;20272;-80
2021/11/12 00:41:22;;;;;;;23.10;17.17;;;;;;;;;;5040759;28;20164;-81
2021/11/12 00:43:52;;;;;;;22.57;17.23;;;;;;;;;;5046179;28;20190;-81
2021/11/12 00:48:56;;;;;;;23.47;18.07;;;;;;;;;;5062859;28;20216;-81
2021/11/12 00:51:32;;;;;;;23.30;17.10;;;;;;;;;;5058159;28;20173;-81
2021/11/12 00:56:27;;;;;;;24.30;17.10;;;;;;;;;;5077011;28;20191;-80
2021/11/12 00:58:55;;;;;;;24.47;17.43;;;;;;;;;;5066270;28;20175;-81
2021/11/12 01:01:22;;;;;;;23.73;17.97;;;;;;;;;;5060729;28;20231;-81
2021/11/12 01:03:49;;;;;;;25.07;18.03;;;;;;;;;;5061464;28;20257;-79
2021/11/12 01:06:15;;;;;;;24.37;17.07;;;;;;;;;;5058463;28;20241;-79
2021/11/12 01:08:42;;;;;;;27.87;16.90;;;;;;;;;;5073837;28;20196;-79
2021/11/12 01:11:08;;;;;;;22.43;16.83;;;;;;;;;;5060036;28;20207;-79
2021/11/12 01:13:35;;;;;;;22.87;16.53;;;;;;;;;;5061822;28;20215;-79
2021/11/12 01:16:03;;;;;;;22.67;16.90;;;;;;;;;;5077751;28;20176;-79
2021/11/12 01:18:29;;;;;;;21.67;17.50;;;;;;;;;;5074781;28;20183;-79
2021/11/12 01:20:55;;;;;;;23.83;17.73;;;;;;;;;;5089854;28;20262;-79
2021/11/12 01:23:21;;;;;;;25.87;18.10;;;;;;;;;;5071842;28;20192;-79
2021/11/12 01:25:47;;;;;;;22.40;17.47;;;;;;;;;;5070573;28;20244;-80
2021/11/12 01:28:14;;;;;;;24.50;18.40;;;;;;;;;;5069175;28;20187;-79
2021/11/12 01:30:40;;;;;;;26.53;17.10;;;;;;;;;;5075665;28;20623;-79
2021/11/12 01:33:06;;;;;;;24.10;17.37;;;;;;;;;;5088495;28;20191;-79
2021/11/12 01:35:33;;;;;;;21.20;16.93;;;;;;;;;;5091057;28;20211;-79
2021/11/12 01:37:59;;;;;;;23.13;16.27;;;;;;;;;;5058363;28;20200;-79
2021/11/12 01:40:26;;;;;;;23.47;17.83;;;;;;;;;;5074692;28;20176;-79
2021/11/12 01:43:12;;;;;;;24.77;17.47;;;;;;;;;;5086457;28;20176;-79
2021/11/12 01:48:18;;;;;;;22.40;16.80;;;;;;;;;;5089416;28;20180;-79
2021/11/12 01:50:49;;;;;;;20.97;16.10;;;;;;;;;;5073554;28;20258;-78
2021/11/12 01:53:25;;;;;;;21.67;16.07;;;;;;;;;;5072027;28;20211;-79
2021/11/12 01:56:09;;;;;;;24.57;16.20;;;;;;;;;;5088011;28;20160;-79
2021/11/12 01:58:53;;;;;;;21.00;16.67;;;;;;;;;;5073467;28;20631;-79
2021/11/12 02:01:23;;;;;;;22.23;17.53;;;;;;;;;;5064470;28;20262;-79
2021/11/12 02:03:50;;;;;;;22.23;16.33;;;;;;;;;;5063846;28;20214;-79
2021/11/12 02:06:18;;;;;;;22.67;16.90;;;;;;;;;;5054187;28;20245;-79
2021/11/12 02:08:44;;;;;;;25.07;16.40;;;;;;;;;;5063902;28;20176;-79
2021/11/12 02:11:11;;;;;;;21.23;15.47;;;;;;;;;;5086631;28;20172;-79
2021/11/12 02:13:37;;;;;;;22.60;16.87;;;;;;;;;;5081192;28;20249;-79
2021/11/12 02:16:05;;;;;;;24.73;18.10;;;;;;;;;;5065916;28;20661;-79
2021/11/12 02:18:36;;;;;;;24.07;17.80;;;;;;;;;;5062481;28;20195;-79
2021/11/12 02:21:11;;;;;;;21.10;16.20;;;;;;;;;;5067192;28;20199;-79
2021/11/12 02:24:25;;;;;;;25.17;15.90;;;;;;;;;;5069380;28;20191;-79
2021/11/12 02:26:26;;;;;;;25.23;17.00;;;;;;;;;;5065481;28;20192;-79
2021/11/12 02:28:54;;;;;;;22.07;15.43;;;;;;;;;;5055443;28;20188;-79
2021/11/12 02:31:21;;;;;;;23.33;16.83;;;;;;;;;;5056861;28;20304;-79
2021/11/12 02:33:47;;;;;;;24.13;15.70;;;;;;;;;;5055844;28;20173;-79
2021/11/12 02:36:14;;;;;;;21.03;16.10;;;;;;;;;;5057005;28;20223;-80
2021/11/12 02:38:43;;;;;;;21.53;16.03;;;;;;;;;;5055515;28;20172;-80
2021/11/12 02:41:09;;;;;;;19.90;15.23;;;;;;;;;;5078631;28;20295;-79
2021/11/12 02:43:35;;;;;;;25.43;17.37;;;;;;;;;;5073307;28;20191;-80
2021/11/12 02:46:03;;;;;;;22.70;15.90;;;;;;;;;;5092722;28;20266;-79
2021/11/12 02:48:30;;;;;;;24.10;17.77;;;;;;;;;;5056471;28;20208;-79
2021/11/12 02:50:56;;;;;;;23.13;16.40;;;;;;;;;;5061166;28;20192;-79
2021/11/12 02:53:23;;;;;;;23.07;16.60;;;;;;;;;;5072556;28;20283;-80
2021/11/12 02:55:49;;;;;;;25.80;16.97;;;;;;;;;;5070761;28;20180;-79
2021/11/12 02:58:15;;;;;;;24.80;16.70;;;;;;;;;;5059857;28;20175;-79
2021/11/12 03:00:43;;;;;;;22.23;16.17;;;;;;;;;;5070399;28;20196;-79
2021/11/12 03:03:09;;;;;;;24.07;17.47;;;;;;;;;;5080603;28;20201;-79
2021/11/12 03:05:36;;;;;;;20.03;15.30;;;;;;;;;;5064454;28;20214;-78
2021/11/12 03:08:03;;;;;;;21.47;16.10;;;;;;;;;;5070468;28;20188;-79
2021/11/12 03:10:29;;;;;;;22.73;16.17;;;;;;;;;;5090116;28;20176;-79
2021/11/12 03:12:55;;;;;;;20.70;16.53;;;;;;;;;;5081135;28;20279;-79
2021/11/12 03:15:24;;;;;;;20.77;16.60;;;;;;;;;;5058719;28;20204;-79
2021/11/12 03:17:55;;;;;;;21.90;16.57;;;;;;;;;;5070563;28;20262;-79
2021/11/12 03:20:23;;;;;;;22.10;16.33;;;;;;;;;;5075481;28;20276;-79
2021/11/12 03:25:39;;;;;;;23.30;16.60;;;;;;;;;;5078550;28;20342;-78
2021/11/12 04:00:46;;;;;;;21.33;15.07;;;;;;;;;;5087999;28;20195;-79
2021/11/12 05:57:29;;;;;;;16.53;12.87;;;;;;;;;;5051489;28;20211;-79
2021/11/12 05:59:55;;;;;;;17.47;12.17;;;;;;;;;;5037571;28;20184;-79
2021/11/12 06:02:22;;;;;;;15.87;12.80;;;;;;;;;;5052119;28;20196;-79
2021/11/12 06:04:48;;;;;;;17.70;12.13;;;;;;;;;;5062538;28;20176;-79
2021/11/12 06:07:14;;;;;;;17.73;12.27;;;;;;;;;;5075521;28;20933;-79
2021/11/12 06:09:41;;;;;;;14.93;11.67;;;;;;;;;;5075532;28;20184;-78
2021/11/12 06:12:11;;;;;;;15.40;11.90;;;;;;;;;;5090037;28;20596;-79
2021/11/12 06:14:37;;;;;;;15.17;11.83;;;;;;;;;;5062480;28;20572;-79
2021/11/12 06:17:04;;;;;;;15.20;12.27;;;;;;;;;;5092450;28;20177;-79
2021/11/12 06:19:30;;;;;;;14.33;11.67;;;;;;;;;;5094346;28;20226;-79
2021/11/12 06:21:56;;;;;;;15.00;11.63;;;;;;;;;;5085878;28;20646;-78
2021/11/12 06:24:22;;;;;;;13.80;10.60;;;;;;;;;;5060500;28;20177;-79
2021/11/12 06:26:48;;;;;;;18.60;12.70;;;;;;;;;;5069060;28;20180;-79
2021/11/12 06:29:14;;;;;;;13.37;11.43;;;;;;;;;;5101120;28;20187;-79
2021/11/12 06:31:41;;;;;;;14.80;11.93;;;;;;;;;;5075686;28;20185;-79
2021/11/12 06:34:07;;;;;;;13.97;11.63;;;;;;;;;;5098834;28;20653;-80
2021/11/12 06:36:33;;;;;;;15.27;11.40;;;;;;;;;;5081230;28;20183;-79
2021/11/12 06:39:00;;;;;;;16.03;11.73;;;;;;;;;;5102061;28;20610;-79
2021/11/12 06:41:39;;;;;;;12.33;10.47;;;;;;;;;;5075201;28;20172;-79
2021/11/12 06:49:31;;;;;;;13.90;11.63;;;;;;;;;;5092554;28;20357;-80
2021/11/12 06:51:57;;;;;;;13.57;10.60;;;;;;;;;;5075708;28;20240;-80
2021/11/12 06:54:23;;;;;;;17.37;11.00;;;;;;;;;;5078228;28;20176;-79
2021/11/12 06:56:49;;;;;;;13.20;10.60;;;;;;;;;;5082762;28;20180;-79
2021/11/12 06:59:16;;;;;;;13.20;11.13;;;;;;;;;;5101591;28;20183;-80
2021/11/12 07:01:42;;;;;;;12.87;10.80;;;;;;;;;;5079970;28;20207;-79
2021/11/12 07:04:10;;;;;;;12.90;11.43;;;;;;;;;;5099058;28;20192;-80
2021/11/12 07:06:36;;;;;;;16.27;11.87;;;;;;;;;;5081546;28;20383;-79
2021/11/12 07:09:06;;;;;;;12.53;11.13;;;;;;;;;;5080750;28;20262;-79
2021/11/12 07:11:32;;;;;;;13.33;10.43;;;;;;;;;;5081009;28;20551;-79
2021/11/12 07:13:59;;;;;;;13.70;11.43;;;;;;;;;;5099024;28;20176;-80
2021/11/12 07:16:25;;;;;;;14.27;12.13;;;;;;;;;;5081185;28;20172;-79
2021/11/12 07:18:54;;;;;;;13.53;11.50;;;;;;;;;;5099384;28;20432;-80
2021/11/12 07:21:22;;;;;;;14.40;11.50;;;;;;;;;;5079034;28;20437;-79
2021/11/12 07:23:48;;;;;;;14.77;11.53;;;;;;;;;;5082818;28;20170;-79
2021/11/12 07:26:16;;;;;;;13.10;11.57;;;;;;;;;;5084554;28;20183;-79
2021/11/12 07:28:42;;;;;;;14.93;11.67;;;;;;;;;;5083630;28;20184;-80
2021/11/12 07:31:08;;;;;;;15.67;12.00;;;;;;;;;;5086214;28;20242;-79
2021/11/12 07:33:36;;;;;;;14.07;11.57;;;;;;;;;;5103208;28;20203;-80
2021/11/12 07:38:53;;;;;;;13.33;11.37;;;;;;;;;;5104281;28;20184;-79
2021/11/12 07:44:12;;;;;;;13.57;11.23;;;;;;;;;;5087401;28;20248;-79
2021/11/12 07:46:42;;;;;;;15.23;11.43;;;;;;;;;;5078176;28;20168;-79
2021/11/12 07:49:09;;;;;;;16.27;12.47;;;;;;;;;;5085739;28;20216;-79
2021/11/12 07:51:36;;;;;;;14.80;11.57;;;;;;;;;;5085413;28;20212;-79
2021/11/12 07:54:04;;;;;;;14.43;11.53;;;;;;;;;;5105045;28;20172;-79
2021/11/12 07:56:31;;;;;;;15.93;12.50;;;;;;;;;;5105094;28;20172;-80
2021/11/12 07:58:58;;;;;;;16.83;12.63;;;;;;;;;;5084919;28;20177;-79
2021/11/12 08:01:25;;;;;;;16.83;13.03;;;;;;;;;;5088422;28;20187;-79
2021/11/12 08:03:56;;;;;;;17.43;12.93;;;;;;;;;;5106134;28;20218;-80
2021/11/12 08:06:26;;;;;;;17.47;13.77;;;;;;;;;;5102921;28;20176;-80
2021/11/12 08:09:00;;;;;;;15.77;12.90;;;;;;;;;;5082863;28;20265;-79
2021/11/12 08:14:13;;;;;;;16.70;13.63;;;;;;;;;;5098216;28;20171;-79
2021/11/12 08:19:16;;;;;;;16.37;12.57;;;;;;;;;;5095368;28;20179;-79
2021/11/12 08:21:51;;;;;;;18.37;13.73;;;;;;;;;;5087665;28;20181;-79
2021/11/12 08:24:33;;;;;;;18.37;13.77;;;;;;;;;;5091082;28;20187;-79
2021/11/12 08:27:31;;;;;;;16.50;13.00;;;;;;;;;;5070840;28;20174;-79
2021/11/12 08:30:15;;;;;;;18.13;13.67;;;;;;;;;;5077043;28;20177;-79
2021/11/12 08:32:47;;;;;;;19.47;13.40;;;;;;;;;;5060524;28;20203;-79
2021/11/12 08:45:29;;;;;;;21.87;13.87;;;;;;;;;;5083969;28;20233;-79
2021/11/12 08:48:08;;;;;;;20.73;14.27;;;;;;;;;;5088996;28;20210;-79
2021/11/12 08:50:36;;;;;;;19.30;14.43;;;;;;;;;;5061642;28;20271;-79
2021/11/12 08:53:10;;;;;;;19.27;14.03;;;;;;;;;;5069607;28;20207;-79
2021/11/12 08:55:37;;;;;;;22.30;15.03;;;;;;;;;;5068818;28;20725;-79
2021/11/12 08:58:05;;;;;;;17.13;13.80;;;;;;;;;;5071921;28;20168;-79
2021/11/12 09:00:31;;;;;;;17.93;14.00;;;;;;;;;;5058333;28;20528;-78
2021/11/12 09:02:58;;;;;;;17.83;13.93;;;;;;;;;;5071046;28;20553;-79
2021/11/12 09:05:25;;;;;;;18.40;13.43;;;;;;;;;;5090066;28;20172;-79
2021/11/12 09:07:51;;;;;;;20.83;15.23;;;;;;;;;;5069151;28;20175;-79
2021/11/12 09:10:18;;;;;;;19.23;15.33;;;;;;;;;;5070541;28;20234;-79
2021/11/12 09:12:47;;;;;;;19.50;15.10;;;;;;;;;;5073726;28;20286;-79
2021/11/12 09:15:29;;;;;;;20.50;15.07;;;;;;;;;;5061518;28;20244;-79
2021/11/12 09:17:56;;;;;;;18.30;14.53;;;;;;;;;;5060574;28;20654;-79
2021/11/12 09:20:22;;;;;;;20.97;15.70;;;;;;;;;;5067449;28;20627;-79
2021/11/12 09:22:48;;;;;;;18.53;14.83;;;;;;;;;;5071412;28;20295;-78
2021/11/12 09:25:15;;;;;;;19.83;15.23;;;;;;;;;;5077912;28;20557;-79
2021/11/12 09:27:41;;;;;;;19.47;15.23;;;;;;;;;;5072517;28;20550;-79
2021/11/12 09:30:12;;;;;;;19.57;16.17;;;;;;;;;;5094695;28;20179;-79
2021/11/12 09:32:38;;;;;;;18.90;14.70;;;;;;;;;;5078372;28;20199;-79
2021/11/12 09:35:04;;;;;;;16.63;13.37;;;;;;;;;;5076137;28;20173;-79
2021/11/12 09:37:30;;;;;;;18.73;13.57;;;;;;;;;;5083537;28;20171;-79
2021/11/12 09:39:57;;;;;;;18.47;15.30;;;;;;;;;;5076577;28;20247;-79
2021/11/12 09:42:25;;;;;;;18.83;15.33;;;;;;;;;;5072903;28;20183;-79
2021/11/12 09:44:51;;;;;;;17.90;14.50;;;;;;;;;;5060393;28;20184;-80
2021/11/12 09:47:23;;;;;;;20.27;15.40;;;;;;;;;;5087780;28;20704;-79
2021/11/12 09:49:50;;;;;;;16.97;13.93;;;;;;;;;;5071895;28;20212;-79
2021/11/12 09:52:16;;;;;;;18.20;14.80;;;;;;;;;;5058917;28;20234;-78
2021/11/12 09:54:42;;;;;;;17.43;14.50;;;;;;;;;;5087468;28;20174;-79
2021/11/12 09:57:11;;;;;;;18.93;14.87;;;;;;;;;;5067511;28;20295;-79
2021/11/12 09:59:37;;;;;;;18.70;14.67;;;;;;;;;;5084860;28;20176;-78
2021/11/12 10:02:05;;;;;;;19.83;16.13;;;;;;;;;;5064925;28;20650;-79
2021/11/12 10:04:31;;;;;;;19.30;14.67;;;;;;;;;;5069096;28;20663;-78
2021/11/12 10:06:58;;;;;;;17.47;14.40;;;;;;;;;;5069268;28;20534;-79
2021/11/12 10:09:24;;;;;;;21.23;15.33;;;;;;;;;;5080398;28;20176;-79
2021/11/12 10:11:52;;;;;;;17.20;15.03;;;;;;;;;;5066417;28;20647;-79
2021/11/12 10:14:48;;;;;;;19.37;14.83;;;;;;;;;;5063944;28;20179;-79
2021/11/12 10:17:15;;;;;;;17.63;15.07;;;;;;;;;;5088631;28;20228;-78
2021/11/12 10:19:42;;;;;;;19.37;14.80;;;;;;;;;;5073764;28;20175;-78
2021/11/12 10:22:09;;;;;;;19.57;14.97;;;;;;;;;;5068557;28;20187;-78
2021/11/12 10:24:37;;;;;;;19.60;15.07;;;;;;;;;;5069148;28;20594;-78
2021/11/12 10:27:08;;;;;;;20.50;14.70;;;;;;;;;;5064524;28;20282;-79
2021/11/12 10:29:39;;;;;;;18.17;13.33;;;;;;;;;;5080141;28;20233;-79
2021/11/12 10:32:07;;;;;;;16.80;14.43;;;;;;;;;;5088687;28;20708;-78
2021/11/12 10:34:34;;;;;;;20.47;15.73;;;;;;;;;;5060470;28;20584;-79
2021/11/12 10:37:16;;;;;;;19.20;14.30;;;;;;;;;;5080397;28;20171;-78
2021/11/12 10:39:44;;;;;;;17.77;14.57;;;;;;;;;;5071571;28;20179;-78
2021/11/12 10:42:19;;;;;;;18.47;14.47;;;;;;;;;;5079524;28;20176;-79
2021/11/12 10:44:50;;;;;;;19.40;14.57;;;;;;;;;;5065442;28;20194;-78
2021/11/12 10:47:16;;;;;;;17.13;14.47;;;;;;;;;;5071204;28;20184;-78
2021/11/12 10:49:44;;;;;;;20.83;14.60;;;;;;;;;;5051882;28;20594;-79
2021/11/12 10:52:15;;;;;;;20.33;14.37;;;;;;;;;;5080018;28;20203;-78
2021/11/12 10:57:15;;;;;;;17.73;13.87;;;;;;;;;;5088890;28;20167;-79
2021/11/12 10:59:53;;;;;;;19.10;13.80;;;;;;;;;;5087754;28;20176;-79
2021/11/12 11:02:31;;;;;;;19.20;13.83;;;;;;;;;;5068750;28;20194;-79
2021/11/12 11:04:58;;;;;;;16.93;13.43;;;;;;;;;;5074164;28;20180;-79
2021/11/12 11:07:25;;;;;;;16.23;13.17;;;;;;;;;;5086578;28;20188;-79
2021/11/12 11:09:56;;;;;;;16.37;13.17;;;;;;;;;;5095078;28;20176;-79
2021/11/12 11:12:37;;;;;;;13.77;12.20;;;;;;;;;;5069140;28;20203;-79
2021/11/12 11:15:15;;;;;;;14.77;12.47;;;;;;;;;;5068356;28;20175;-80
2021/11/12 11:17:44;;;;;;;16.07;13.03;;;;;;;;;;5071982;28;20206;-80
2021/11/12 11:20:11;;;;;;;16.57;12.97;;;;;;;;;;5074308;28;20195;-80
2021/11/12 11:22:45;;;;;;;17.30;13.40;;;;;;;;;;5076274;28;20283;-80
2021/11/12 11:25:11;;;;;;;16.47;12.93;;;;;;;;;;5073035;28;20172;-80
2021/11/12 11:27:37;;;;;;;15.20;13.50;;;;;;;;;;5065886;28;20237;-79
2021/11/12 11:30:05;;;;;;;15.50;12.60;;;;;;;;;;5068501;28;20183;-79
2021/11/12 11:32:32;;;;;;;18.33;13.73;;;;;;;;;;5092982;28;20262;-80
2021/11/12 11:34:58;;;;;;;15.20;12.23;;;;;;;;;;5077507;28;20566;-79
2021/11/12 11:37:25;;;;;;;17.77;14.40;;;;;;;;;;5088222;28;20156;-80
2021/11/12 11:39:53;;;;;;;14.67;12.13;;;;;;;;;;5064070;28;20184;-79
2021/11/12 11:42:19;;;;;;;16.60;13.03;;;;;;;;;;5062797;28;20219;-79
2021/11/12 11:44:45;;;;;;;15.80;13.13;;;;;;;;;;5070433;28;20617;-78
2021/11/12 11:47:12;;;;;;;16.37;12.90;;;;;;;;;;5076729;28;20639;-79
2021/11/12 11:49:38;;;;;;;15.47;11.77;;;;;;;;;;5065034;28;20685;-79
2021/11/12 11:52:09;;;;;;;15.07;12.07;;;;;;;;;;5065306;28;20203;-79
2021/11/12 11:54:36;;;;;;;15.33;12.30;;;;;;;;;;5068330;28;20167;-80
2021/11/12 11:57:12;;;;;;;16.90;13.37;;;;;;;;;;5083733;28;20172;-79
2021/11/12 11:59:40;;;;;;;15.63;13.00;;;;;;;;;;5091002;28;20192;-79
2021/11/12 12:02:11;;;;;;;15.97;13.20;;;;;;;;;;5084585;28;20591;-79
2021/11/12 12:04:41;;;;;;;15.37;12.83;;;;;;;;;;5081180;28;20622;-79
2021/11/12 12:07:15;;;;;;;14.90;11.80;;;;;;;;;;5086275;28;20180;-79
2021/11/12 12:09:46;;;;;;;15.20;11.67;;;;;;;;;;5065635;28;20188;-79
2021/11/12 12:12:13;;;;;;;13.90;12.20;;;;;;;;;;5069604;28;20282;-80
2021/11/12 12:14:40;;;;;;;12.63;11.20;;;;;;;;;;5081677;28;20214;-79
2021/11/12 12:17:10;;;;;;;12.53;11.23;;;;;;;;;;5062977;28;20176;-79
2021/11/12 12:19:45;;;;;;;15.90;10.83;;;;;;;;;;5076460;28;20191;-79
2021/11/12 12:31:07;;;;;;;14.00;10.87;;;;;;;;;;5080615;28;20220;-79
2021/11/12 12:36:58;;;;;;;11.57;10.37;;;;;;;;;;5082339;28;20207;-79
2021/11/12 13:21:46;;;;;;;12.57;9.80;;;;;;;;;;5078319;28;20306;-79
2021/11/12 13:24:33;;;;;;;13.03;9.83;;;;;;;;;;5065803;28;20186;-79
2021/11/12 13:27:06;;;;;;;13.17;10.57;;;;;;;;;;5064726;28;20183;-79
2021/11/12 13:29:33;;;;;;;13.17;10.73;;;;;;;;;;5062441;28;20188;-79
2021/11/12 13:32:04;;;;;;;11.83;10.43;;;;;;;;;;5062142;28;20179;-79
2021/11/12 13:34:30;;;;;;;12.90;10.50;;;;;;;;;;5067258;28;20282;-79
2021/11/12 13:36:56;;;;;;;13.67;10.97;;;;;;;;;;5062198;28;20532;-79
2021/11/12 13:39:23;;;;;;;11.57;10.10;;;;;;;;;;5065399;28;20314;-79
2021/11/12 13:41:59;;;;;;;14.83;11.63;;;;;;;;;;5065207;28;20187;-80
2021/11/12 13:44:30;;;;;;;11.33;9.60;;;;;;;;;;5064297;28;20188;-79
2021/11/12 13:46:57;;;;;;;11.33;10.13;;;;;;;;;;5060003;28;20188;-79
2021/11/12 13:49:44;;;;;;;11.13;8.93;;;;;;;;;;5022399;28;1180067;-79
2021/11/12 13:52:14;;;;;;;12.33;9.47;;;;;;;;;;5077975;28;20188;-79
2021/11/12 13:54:42;;;;;;;12.23;10.13;;;;;;;;;;5070420;28;20188;-79
2021/11/12 13:57:13;;;;;;;10.47;8.67;;;;;;;;;;5080965;28;20593;-79
2021/11/12 13:59:49;;;;;;;15.00;9.63;;;;;;;;;;5061144;28;20320;-79
2021/11/12 14:02:15;;;;;;;11.13;9.30;;;;;;;;;;5067939;28;20180;-79
2021/11/12 14:04:41;;;;;;;11.73;9.63;;;;;;;;;;5059054;28;20258;-79
2021/11/12 14:07:24;;;;;;;12.50;8.80;;;;;;;;;;5079589;28;20188;-78
2021/11/12 14:10:20;;;;;;;11.30;8.63;;;;;;;;;;5067313;28;20233;-79
2021/11/12 14:12:57;;;;;;;9.80;8.77;;;;;;;;;;5059168;28;20259;-79
2021/11/12 14:15:36;;;;;;;9.57;8.30;;;;;;;;;;5057315;28;20176;-79
2021/11/12 14:23:54;;;;;;;10.10;8.73;;;;;;;;;;5076725;28;20185;-79
2021/11/12 14:26:31;;;;;;;13.73;10.23;;;;;;;;;;5078855;28;20182;-79
2021/11/12 14:29:07;;;;;;;12.17;8.60;;;;;;;;;;5059623;28;20240;-79
2021/11/12 14:36:44;;;;;;;12.40;9.47;;;;;;;;;;5059024;28;20785;-79
2021/11/12 14:48:00;;;;;;;10.33;8.40;;;;;;;;;;5076598;28;20233;-79
2021/11/12 14:50:36;;;;;;;9.67;7.87;;;;;;;;;;5056921;28;20191;-79
2021/11/12 14:53:14;;;;;;;11.70;8.10;;;;;;;;;;5062414;28;20203;-78
2021/11/12 14:55:45;;;;;;;13.83;9.37;;;;;;;;;;5061998;28;20191;-78
2021/11/12 14:58:16;;;;;;;11.50;8.33;;;;;;;;;;5079733;28;20242;-78
2021/11/12 15:00:42;;;;;;;9.73;8.17;;;;;;;;;;5067063;28;20668;-78
2021/11/12 15:03:09;;;;;;;12.00;8.63;;;;;;;;;;5062761;28;20347;-78
2021/11/12 15:05:36;;;;;;;12.07;9.63;;;;;;;;;;5058669;28;20180;-78
2021/11/12 15:08:12;;;;;;;12.47;8.63;;;;;;;;;;5058580;28;20325;-78
2021/11/12 15:10:39;;;;;;;9.23;7.97;;;;;;;;;;5069776;28;20191;-79
2021/11/12 15:13:05;;;;;;;10.73;8.87;;;;;;;;;;5078188;28;20248;-79
2021/11/12 15:15:32;;;;;;;10.93;8.57;;;;;;;;;;5060243;28;20556;-78
2021/11/12 15:18:03;;;;;;;10.17;9.07;;;;;;;;;;5054155;28;20199;-78
2021/11/12 15:20:29;;;;;;;11.97;8.53;;;;;;;;;;5077866;28;20216;-78
2021/11/12 15:30:33;;;;;;;12.30;9.20;;;;;;;;;;5077743;28;20188;-78
2021/11/12 15:33:05;;;;;;;11.47;9.07;;;;;;;;;;5057963;28;20658;-78
2021/11/12 15:35:32;;;;;;;11.37;9.23;;;;;;;;;;5057369;28;20187;-78
2021/11/12 15:38:22;;;;;;;14.40;10.13;;;;;;;;;;5056391;28;20646;-79
2021/11/12 15:41:04;;;;;;;12.83;8.87;;;;;;;;;;5060031;28;20184;-78
2021/11/12 15:43:42;;;;;;;14.97;9.57;;;;;;;;;;5057525;28;20195;-79
2021/11/12 15:46:12;;;;;;;11.97;9.47;;;;;;;;;;5079483;28;20208;-79
2021/11/12 15:48:40;;;;;;;12.67;9.77;;;;;;;;;;5060120;28;20234;-79
2021/11/12 15:51:22;;;;;;;12.50;9.07;;;;;;;;;;5053654;28;20636;-79
2021/11/12 15:54:11;;;;;;;11.23;9.63;;;;;;;;;;5063484;28;20261;-79
2021/11/12 15:56:52;;;;;;;12.73;9.37;;;;;;;;;;5058394;28;20187;-79
2021/11/12 16:18:48;;;;;;;12.83;9.50;;;;;;;;;;5074393;28;20621;-80
2021/11/12 16:20:58;;;;;;;10.97;9.47;;;;;;;;;;5057849;28;20184;-80
2021/11/12 16:26:09;;;;;;;13.63;9.37;;;;;;;;;;5078847;28;20190;-79
2021/11/12 16:28:59;;;;;;;14.43;10.13;;;;;;;;;;5073151;28;20187;-79
2021/11/12 16:31:29;;;;;;;13.13;9.60;;;;;;;;;;5048514;28;20177;-79
2021/11/12 16:33:57;;;;;;;12.63;9.23;;;;;;;;;;5054612;28;20674;-79
2021/11/12 16:36:24;;;;;;;12.27;8.40;;;;;;;;;;5055658;28;20179;-79
2021/11/12 16:38:51;;;;;;;13.57;9.53;;;;;;;;;;5056726;28;20235;-79
2021/11/12 16:41:27;;;;;;;10.77;9.10;;;;;;;;;;5055636;28;20333;-79
2021/11/12 16:44:16;;;;;;;11.37;9.47;;;;;;;;;;5049243;28;20282;-79
2021/11/12 16:52:32;;;;;;;12.07;8.97;;;;;;;;;;5054821;28;20268;-79
2021/11/12 17:13:35;;;;;;;11.53;9.23;;;;;;;;;;5054149;28;20882;-79
2021/11/12 17:22:32;;;;;;;12.00;9.20;;;;;;;;;;5055299;28;20179;-78
2021/11/12 18:16:19;;;;;;;11.40;9.47;;;;;;;;;;5078564;28;20236;-79
2021/11/12 21:46:41;;;;;;;9.97;8.67;;;;;;;;;;5082600;28;20301;-79
2021/11/12 21:49:08;;;;;;;11.10;9.20;;;;;;;;;;5076277;28;20208;-79
2021/11/12 21:51:39;;;;;;;12.27;9.97;;;;;;;;;;5070203;28;20280;-79
2021/11/12 21:54:05;;;;;;;11.40;9.90;;;;;;;;;;5060323;28;20624;-78
2021/11/12 21:56:33;;;;;;;11.77;9.83;;;;;;;;;;5079700;28;20187;-78
2021/11/12 21:58:59;;;;;;;12.50;9.63;;;;;;;;;;5056173;28;20168;-79
2021/11/12 22:01:26;;;;;;;10.97;9.33;;;;;;;;;;5061508;28;20176;-79
2021/11/12 22:03:52;;;;;;;11.47;9.00;;;;;;;;;;5064798;28;20537;-79
2021/11/12 22:06:18;;;;;;;13.47;9.47;;;;;;;;;;5060450;28;20180;-80
2021/11/12 22:08:45;;;;;;;11.43;9.23;;;;;;;;;;5067276;28;20690;-79
2021/11/12 22:11:11;;;;;;;11.73;9.30;;;;;;;;;;5071133;28;20183;-80
2021/11/12 22:13:38;;;;;;;11.07;8.97;;;;;;;;;;5063319;28;20239;-78
2021/11/12 22:16:06;;;;;;;12.40;9.67;;;;;;;;;;5065772;28;20184;-78
2021/11/12 22:18:32;;;;;;;12.07;10.03;;;;;;;;;;5073540;28;20187;-79
2021/11/12 22:20:58;;;;;;;13.47;9.27;;;;;;;;;;5062708;28;20184;-79
2021/11/12 22:23:25;;;;;;;13.47;9.63;;;;;;;;;;5088483;28;20182;-79
2021/11/12 22:25:52;;;;;;;13.87;9.57;;;;;;;;;;5065600;28;20196;-78
2021/11/12 22:28:18;;;;;;;10.73;9.00;;;;;;;;;;5061864;28;20184;-78
2021/11/12 22:30:45;;;;;;;10.37;9.17;;;;;;;;;;5074125;28;20187;-79
2021/11/12 22:33:11;;;;;;;10.03;8.27;;;;;;;;;;5069189;28;20257;-79
2021/11/12 22:35:37;;;;;;;13.50;9.47;;;;;;;;;;5079914;28;20179;-78
2021/11/12 22:38:04;;;;;;;11.60;9.63;;;;;;;;;;5074079;28;20180;-79
2021/11/12 22:40:31;;;;;;;12.83;8.73;;;;;;;;;;5067265;28;20186;-79
2021/11/12 22:42:57;;;;;;;11.13;8.97;;;;;;;;;;5071668;28;20198;-79
2021/11/12 22:45:23;;;;;;;11.40;9.00;;;;;;;;;;5065502;28;20200;-78
2021/11/12 22:47:49;;;;;;;12.50;9.90;;;;;;;;;;5065606;28;20187;-79
2021/11/12 22:50:16;;;;;;;11.57;9.13;;;;;;;;;;5075066;28;20227;-79
2021/11/12 22:52:43;;;;;;;13.87;9.00;;;;;;;;;;5075690;28;20206;-79
2021/11/12 22:55:10;;;;;;;11.60;8.83;;;;;;;;;;5067886;28;20616;-78
2021/11/12 22:57:36;;;;;;;10.23;9.13;;;;;;;;;;5089676;28;20168;-78
2021/11/12 23:00:05;;;;;;;12.07;10.07;;;;;;;;;;5076230;28;20182;-78
2021/11/12 23:02:31;;;;;;;11.60;8.80;;;;;;;;;;5065005;28;20191;-78
2021/11/12 23:04:58;;;;;;;14.77;9.27;;;;;;;;;;5061871;28;20180;-78
2021/11/12 23:07:24;;;;;;;10.30;8.97;;;;;;;;;;5074216;28;20222;-78
2021/11/12 23:09:51;;;;;;;10.77;9.37;;;;;;;;;;5059983;28;20314;-78
2021/11/12 23:12:17;;;;;;;13.97;9.00;;;;;;;;;;5068181;28;20182;-78
2021/11/12 23:14:43;;;;;;;11.30;8.77;;;;;;;;;;5065591;28;20215;-80
2021/11/12 23:17:09;;;;;;;13.03;9.40;;;;;;;;;;5073714;28;20232;-80
2021/11/12 23:19:35;;;;;;;11.60;9.40;;;;;;;;;;5076840;28;20252;-80
2021/11/12 23:22:01;;;;;;;11.57;8.63;;;;;;;;;;5088563;28;20232;-80
2021/11/12 23:24:28;;;;;;;10.80;7.83;;;;;;;;;;5063352;28;20327;-80
2021/11/12 23:26:54;;;;;;;14.50;9.00;;;;;;;;;;5065138;28;20181;-80
2021/11/12 23:29:20;;;;;;;10.17;8.37;;;;;;;;;;5080462;28;20179;-80
2021/11/12 23:31:46;;;;;;;10.73;8.70;;;;;;;;;;5094406;28;20273;-80
2021/11/12 23:34:12;;;;;;;11.83;9.50;;;;;;;;;;5092882;28;20725;-80
2021/11/12 23:36:38;;;;;;;10.67;9.10;;;;;;;;;;5073034;28;20190;-80
2021/11/12 23:39:04;;;;;;;12.77;9.93;;;;;;;;;;5070430;28;20176;-80
2021/11/12 23:41:30;;;;;;;12.20;9.43;;;;;;;;;;5081260;28;20318;-80
2021/11/12 23:43:57;;;;;;;13.00;9.37;;;;;;;;;;5060305;28;20474;-80
2021/11/12 23:46:23;;;;;;;10.73;8.97;;;;;;;;;;5063300;28;20190;-80
2021/11/12 23:48:49;;;;;;;9.70;7.97;;;;;;;;;;5066078;28;20623;-80
2021/11/12 23:51:15;;;;;;;10.27;8.53;;;;;;;;;;5081892;28;21054;-80
2021/11/12 23:53:41;;;;;;;9.83;8.63;;;;;;;;;;5062142;28;20670;-78
2021/11/12 23:56:07;;;;;;;10.10;8.17;;;;;;;;;;5058486;28;20176;-80
2021/11/12 23:58:34;;;;;;;9.83;8.03;;;;;;;;;;5089281;28;20235;-80
